Erval Grande, Brazil
Current Conditions -  °F | °C
As of 11:00 PM on Tuesday 25 Nov 2014 (Local Time) from SBCH Reporting Station
Moderate Fog Moderate Fog  
Wind Chill: 68°   Ceiling: Unl
Heat Index: 68°   Visibility: 6mi
Dew Point: 66°   Wind: 7mph
Humidity: 94%   Direction: 190°S
Pressure: 29.83"   Gusts: NA
Location:  27.39°S, 52.57°W
Report Text: SBCH 260100Z 19006KT 9999 4500SE VCFG SCT005 20/19 Q1010
Loading
Personal Weather Stations






























Interactive Weather Map New forecast layout! Learn more

10-Day Weather Forecast

Advertisements
Track Severe Weather on mobile